sensor_id;sensor_type;location;lat;lon;timestamp;pressure;altitude;pressure_sealevel;temperature;humidity
20444;BME280;10381;53.730;10.010;2024-02-15T00:02:30;98195.47;;;9.75;100.00
20444;BME280;10381;53.730;10.010;2024-02-15T00:06:30;98195.47;;;9.75;100.00
20444;BME280;10381;53.730;10.010;2024-02-15T00:10:31;98202.03;;;9.79;100.00
20444;BME280;10381;53.730;10.010;2024-02-15T00:14:32;98205.47;;;9.80;100.00
20444;BME280;10381;53.730;10.010;2024-02-15T00:18:32;98205.28;;;9.81;100.00
20444;BME280;10381;53.730;10.010;2024-02-15T00:22:32;98210.19;;;9.85;100.00
20444;BME280;10381;53.730;10.010;2024-02-15T00:26:33;98219.31;;;9.82;100.00
20444;BME280;10381;53.730;10.010;2024-02-15T00:30:33;98219.94;;;9.84;100.00
20444;BME280;10381;53.730;10.010;2024-02-15T00:34:34;98230.72;;;9.82;100.00
20444;BME280;10381;53.730;10.010;2024-02-15T00:38:34;98226.69;;;9.87;100.00
20444;BME280;10381;53.730;10.010;2024-02-15T00:42:35;98241.53;;;9.88;100.00
20444;BME280;10381;53.730;10.010;2024-02-15T00:46:36;98235.25;;;9.89;100.00
20444;BME280;10381;53.730;10.010;2024-02-15T00:50:36;98233.81;;;9.93;100.00
20444;BME280;10381;53.730;10.010;2024-02-15T00:54:37;98248.06;;;9.92;100.00
20444;BME280;10381;53.730;10.010;2024-02-15T00:58:37;98261.09;;;9.93;100.00
20444;BME280;10381;53.730;10.010;2024-02-15T01:02:37;98270.47;;;9.96;100.00
20444;BME280;10381;53.730;10.010;2024-02-15T01:06:37;98277.56;;;9.95;100.00
20444;BME280;10381;53.730;10.010;2024-02-15T01:10:38;98277.78;;;9.94;100.00
20444;BME280;10381;53.730;10.010;2024-02-15T01:14:38;98281.66;;;9.98;100.00
20444;BME280;10381;53.730;10.010;2024-02-15T01:18:39;98288.38;;;9.94;100.00
20444;BME280;10381;53.730;10.010;2024-02-15T01:22:39;98293.25;;;9.97;100.00
20444;BME280;10381;53.730;10.010;2024-02-15T01:26:40;98295.50;;;10.00;100.00
20444;BME280;10381;53.730;10.010;2024-02-15T01:30:40;98292.88;;;10.00;100.00
20444;BME280;10381;53.730;10.010;2024-02-15T01:34:43;98295.34;;;10.01;100.00
20444;BME280;10381;53.730;10.010;2024-02-15T01:38:44;98299.81;;;10.01;100.00
20444;BME280;10381;53.730;10.010;2024-02-15T01:42:45;98303.91;;;10.03;100.00
20444;BME280;10381;53.730;10.010;2024-02-15T01:46:47;98303.91;;;10.03;100.00
20444;BME280;10381;53.730;10.010;2024-02-15T01:50:48;98298.78;;;10.02;100.00
20444;BME280;10381;53.730;10.010;2024-02-15T01:54:52;98302.06;;;10.04;100.00
20444;BME280;10381;53.730;10.010;2024-02-15T01:58:54;98299.81;;;10.01;100.00
20444;BME280;10381;53.730;10.010;2024-02-15T02:02:56;98284.94;;;10.00;100.00
20444;BME280;10381;53.730;10.010;2024-02-15T02:07:00;98292.06;;;9.99;100.00
20444;BME280;10381;53.730;10.010;2024-02-15T02:11:00;98292.50;;;10.03;100.00
20444;BME280;10381;53.730;10.010;2024-02-15T02:15:02;98290.84;;;10.02;100.00
20444;BME280;10381;53.730;10.010;2024-02-15T02:19:02;98292.88;;;10.00;100.00
20444;BME280;10381;53.730;10.010;2024-02-15T02:23:13;98180.56;;;10.02;100.00
20444;BME280;10381;53.730;10.010;2024-02-15T02:27:14;98234.69;;;10.00;100.00
20444;BME280;10381;53.730;10.010;2024-02-15T02:31:15;98259.50;;;9.99;100.00
20444;BME280;10381;53.730;10.010;2024-02-15T02:35:15;98275.38;;;9.99;100.00
20444;BME280;10381;53.730;10.010;2024-02-15T02:39:16;98274.00;;;10.03;100.00
20444;BME280;10381;53.730;10.010;2024-02-15T02:43:16;98294.53;;;10.01;100.00
20444;BME280;10381;53.730;10.010;2024-02-15T02:47:17;98296.97;;;10.02;100.00
20444;BME280;10381;53.730;10.010;2024-02-15T02:51:17;98294.94;;;10.05;100.00
20444;BME280;10381;53.730;10.010;2024-02-15T02:55:17;98296.97;;;10.02;100.00
20444;BME280;10381;53.730;10.010;2024-02-15T02:59:17;98293.94;;;10.06;100.00
20444;BME280;10381;53.730;10.010;2024-02-15T03:03:18;98301.25;;;10.03;100.00
20444;BME280;10381;53.730;10.010;2024-02-15T03:07:19;98248.34;;;10.03;100.00
20444;BME280;10381;53.730;10.010;2024-02-15T03:11:20;98231.84;;;10.01;100.00
20444;BME280;10381;53.730;10.010;2024-02-15T03:15:20;98253.81;;;10.02;100.00
20444;BME280;10381;53.730;10.010;2024-02-15T03:19:22;98277.06;;;10.07;100.00
20444;BME280;10381;53.730;10.010;2024-02-15T03:23:23;98291.09;;;10.07;100.00
20444;BME280;10381;53.730;10.010;2024-02-15T03:27:23;98305.34;;;10.06;100.00
20444;BME280;10381;53.730;10.010;2024-02-15T03:31:23;98301.66;;;10.07;100.00
20444;BME280;10381;53.730;10.010;2024-02-15T03:35:25;98307.59;;;10.09;100.00
20444;BME280;10381;53.730;10.010;2024-02-15T03:39:26;98313.91;;;10.08;100.00
20444;BME280;10381;53.730;10.010;2024-02-15T03:43:27;98314.94;;;10.14;100.00
20444;BME280;10381;53.730;10.010;2024-02-15T03:47:27;98337.31;;;10.11;100.00
20444;BME280;10381;53.730;10.010;2024-02-15T03:51:29;98337.31;;;10.11;100.00
20444;BME280;10381;53.730;10.010;2024-02-15T03:55:29;98344.22;;;10.12;100.00
20444;BME280;10381;53.730;10.010;2024-02-15T03:59:30;98345.88;;;10.13;100.00
20444;BME280;10381;53.730;10.010;2024-02-15T04:03:32;98351.59;;;10.17;100.00
20444;BME280;10381;53.730;10.010;2024-02-15T04:07:34;98350.97;;;10.15;100.00
20444;BME280;10381;53.730;10.010;2024-02-15T04:11:34;98352.63;;;10.16;100.00
20444;BME280;10381;53.730;10.010;2024-02-15T04:15:34;98346.69;;;10.14;100.00
20444;BME280;10381;53.730;10.010;2024-02-15T04:19:34;98352.22;;;10.19;100.00
20444;BME280;10381;53.730;10.010;2024-02-15T04:23:35;98354.06;;;10.18;100.00
20444;BME280;10381;53.730;10.010;2024-02-15T04:27:35;98362.19;;;10.17;100.00
20444;BME280;10381;53.730;10.010;2024-02-15T04:31:36;98365.47;;;10.19;100.00
20444;BME280;10381;53.730;10.010;2024-02-15T04:35:39;98365.47;;;10.19;100.00
20444;BME280;10381;53.730;10.010;2024-02-15T04:39:40;98372.19;;;10.21;100.00
20444;BME280;10381;53.730;10.010;2024-02-15T04:43:40;98374.19;;;10.19;100.00
20444;BME280;10381;53.730;10.010;2024-02-15T04:47:42;98366.25;;;10.19;100.00
20444;BME280;10381;53.730;10.010;2024-02-15T04:51:46;98364.25;;;10.21;100.00
20444;BME280;10381;53.730;10.010;2024-02-15T04:55:47;98350.03;;;10.22;100.00
20444;BME280;10381;53.730;10.010;2024-02-15T04:59:48;98369.75;;;10.20;100.00
20444;BME280;10381;53.730;10.010;2024-02-15T05:03:50;98380.53;;;10.18;100.00
20444;BME280;10381;53.730;10.010;2024-02-15T05:07:50;98378.91;;;10.17;100.00
20444;BME280;10381;53.730;10.010;2024-02-15T05:11:51;98386.63;;;10.19;100.00
20444;BME280;10381;53.730;10.010;2024-02-15T05:15:52;98378.69;;;10.19;100.00
20444;BME280;10381;53.730;10.010;2024-02-15T05:19:53;98369.94;;;10.18;100.00
20444;BME280;10381;53.730;10.010;2024-02-15T05:23:53;98353.25;;;10.18;100.00
20444;BME280;10381;53.730;10.010;2024-02-15T05:27:55;98353.25;;;10.18;100.00
20444;BME280;10381;53.730;10.010;2024-02-15T05:31:56;98338.19;;;10.18;100.00
20444;BME280;10381;53.730;10.010;2024-02-15T05:35:57;98331.63;;;10.14;100.00
20444;BME280;10381;53.730;10.010;2024-02-15T05:39:57;98331.28;;;10.17;100.00
20444;BME280;10381;53.730;10.010;2024-02-15T05:43:57;98323.34;;;10.17;100.00
20444;BME280;10381;53.730;10.010;2024-02-15T05:47:58;98340.19;;;10.16;100.00
20444;BME280;10381;53.730;10.010;2024-02-15T05:51:58;98344.28;;;10.19;100.00
20444;BME280;10381;53.730;10.010;2024-02-15T05:55:59;98356.06;;;10.16;100.00
20444;BME280;10381;53.730;10.010;2024-02-15T05:59:59;98372.75;;;10.17;100.00
20444;BME280;10381;53.730;10.010;2024-02-15T06:04:02;98382.78;;;10.21;100.00
20444;BME280;10381;53.730;10.010;2024-02-15T06:08:08;98392.94;;;10.18;100.00
20444;BME280;10381;53.730;10.010;2024-02-15T06:12:08;98383.97;;;10.19;100.00
20444;BME280;10381;53.730;10.010;2024-02-15T06:16:09;98390.28;;;10.18;100.00
20444;BME280;10381;53.730;10.010;2024-02-15T06:20:13;98393.34;;;10.21;100.00
20444;BME280;10381;53.730;10.010;2024-02-15T06:24:14;98395.38;;;10.19;100.00
20444;BME280;10381;53.730;10.010;2024-02-15T06:28:14;98397.66;;;10.22;100.00
20444;BME280;10381;53.730;10.010;2024-02-15T06:32:34;98402.09;;;10.22;100.00
20444;BME280;10381;53.730;10.010;2024-02-15T06:36:55;98402.75;;;10.24;100.00
20444;BME280;10381;53.730;10.010;2024-02-15T06:41:14;98418.81;;;10.22;100.00
20444;BME280;10381;53.730;10.010;2024-02-15T06:45:15;98417.00;;;10.23;100.00
20444;BME280;10381;53.730;10.010;2024-02-15T06:49:16;98417.16;;;10.21;100.00
20444;BME280;10381;53.730;10.010;2024-02-15T06:53:16;98417.16;;;10.21;100.00
20444;BME280;10381;53.730;10.010;2024-02-15T06:57:17;98421.66;;;10.21;100.00
20444;BME280;10381;53.730;10.010;2024-02-15T07:01:18;98405.78;;;10.21;100.00
20444;BME280;10381;53.730;10.010;2024-02-15T07:05:18;98391.53;;;10.22;100.00
20444;BME280;10381;53.730;10.010;2024-02-15T07:09:18;98397.66;;;10.22;100.00
20444;BME280;10381;53.730;10.010;2024-02-15T07:13:20;98399.28;;;10.23;100.00
20444;BME280;10381;53.730;10.010;2024-02-15T07:17:20;98402.94;;;10.22;100.00
20444;BME280;10381;53.730;10.010;2024-02-15T07:21:21;98410.69;;;10.24;100.00
20444;BME280;10381;53.730;10.010;2024-02-15T07:25:26;98412.34;;;10.25;100.00
20444;BME280;10381;53.730;10.010;2024-02-15T07:29:26;98418.44;;;10.26;100.00
20444;BME280;10381;53.730;10.010;2024-02-15T07:33:28;98425.75;;;10.23;100.00
20444;BME280;10381;53.730;10.010;2024-02-15T07:37:29;98432.66;;;10.24;100.00
20444;BME280;10381;53.730;10.010;2024-02-15T07:41:29;98433.94;;;10.29;100.00
20444;BME280;10381;53.730;10.010;2024-02-15T07:45:30;98442.72;;;10.29;100.00
20444;BME280;10381;53.730;10.010;2024-02-15T07:49:32;98433.94;;;10.29;100.00
20444;BME280;10381;53.730;10.010;2024-02-15T07:53:33;98436.78;;;10.27;100.00
20444;BME280;10381;53.730;10.010;2024-02-15T07:57:34;98439.06;;;10.30;100.00
20444;BME280;10381;53.730;10.010;2024-02-15T08:01:35;98442.06;;;10.27;100.00
20444;BME280;10381;53.730;10.010;2024-02-15T08:05:35;98443.72;;;10.28;100.00
20444;BME280;10381;53.730;10.010;2024-02-15T08:09:37;98442.34;;;10.32;100.00
20444;BME280;10381;53.730;10.010;2024-02-15T08:13:38;98441.72;;;10.30;100.00
20444;BME280;10381;53.730;10.010;2024-02-15T08:17:41;98435.41;;;10.31;100.00
20444;BME280;10381;53.730;10.010;2024-02-15T08:21:42;98429.53;;;10.36;100.00
20444;BME280;10381;53.730;10.010;2024-02-15T08:25:46;98431.19;;;10.37;100.00
20444;BME280;10381;53.730;10.010;2024-02-15T08:29:46;98438.50;;;10.35;100.00
20444;BME280;10381;53.730;10.010;2024-02-15T08:33:47;98442.13;;;10.34;100.00
20444;BME280;10381;53.730;10.010;2024-02-15T08:37:47;98432.19;;;10.36;100.00
20444;BME280;10381;53.730;10.010;2024-02-15T08:41:50;98432.81;;;10.38;100.00
20444;BME280;10381;53.730;10.010;2024-02-15T08:45:52;98425.91;;;10.43;100.00
20444;BME280;10381;53.730;10.010;2024-02-15T08:49:53;98421.31;;;10.52;100.00
20444;BME280;10381;53.730;10.010;2024-02-15T08:53:53;98433.53;;;10.53;100.00
20444;BME280;10381;53.730;10.010;2024-02-15T08:57:53;98411.97;;;10.56;100.00
20444;BME280;10381;53.730;10.010;2024-02-15T09:01:55;98410.78;;;10.59;100.00
20444;BME280;10381;53.730;10.010;2024-02-15T09:05:56;98418.13;;;10.63;100.00
20444;BME280;10381;53.730;10.010;2024-02-15T09:09:58;98397.63;;;10.79;100.00
20444;BME280;10381;53.730;10.010;2024-02-15T09:13:58;98406.97;;;10.75;100.00
20444;BME280;10381;53.730;10.010;2024-02-15T09:17:59;98403.63;;;10.94;100.00
20444;BME280;10381;53.730;10.010;2024-02-15T09:22:00;98418.47;;;10.88;100.00
20444;BME280;10381;53.730;10.010;2024-02-15T09:26:00;98411.50;;;10.81;100.00
20444;BME280;10381;53.730;10.010;2024-02-15T09:30:00;98417.22;;;10.84;100.00
20444;BME280;10381;53.730;10.010;2024-02-15T09:34:00;98411.75;;;10.86;100.00
20444;BME280;10381;53.730;10.010;2024-02-15T09:38:01;98419.50;;;10.94;100.00
20444;BME280;10381;53.730;10.010;2024-02-15T09:42:01;98405.50;;;11.00;100.00
20444;BME280;10381;53.730;10.010;2024-02-15T09:46:02;98400.59;;;11.04;100.00
20444;BME280;10381;53.730;10.010;2024-02-15T09:50:06;98399.78;;;11.03;100.00
20444;BME280;10381;53.730;10.010;2024-02-15T09:54:07;98390.50;;;11.21;100.00
20444;BME280;10381;53.730;10.010;2024-02-15T09:58:09;98398.84;;;11.18;100.00
20444;BME280;10381;53.730;10.010;2024-02-15T10:02:10;98390.25;;;11.16;100.00
20444;BME280;10381;53.730;10.010;2024-02-15T10:06:13;98368.84;;;11.11;100.00
20444;BME280;10381;53.730;10.010;2024-02-15T10:10:21;98352.78;;;11.19;100.00
20444;BME280;10381;53.730;10.010;2024-02-15T10:14:25;98345.63;;;11.13;100.00
20444;BME280;10381;53.730;10.010;2024-02-15T10:18:26;98346.44;;;11.13;100.00
20444;BME280;10381;53.730;10.010;2024-02-15T10:22:26;98347.88;;;11.22;100.00
20444;BME280;10381;53.730;10.010;2024-02-15T10:26:26;98358.72;;;11.27;100.00
20444;BME280;10381;53.730;10.010;2024-02-15T10:30:28;98368.09;;;11.23;100.00
20444;BME280;10381;53.730;10.010;2024-02-15T10:34:31;98374.00;;;11.25;100.00
20444;BME280;10381;53.730;10.010;2024-02-15T10:38:31;98374.19;;;11.24;100.00
20444;BME280;10381;53.730;10.010;2024-02-15T10:42:32;98381.94;;;11.25;100.00
20444;BME280;10381;53.730;10.010;2024-02-15T10:46:34;98381.34;;;11.30;100.00
20444;BME280;10381;53.730;10.010;2024-02-15T10:50:34;98385.66;;;11.31;100.00
20444;BME280;10381;53.730;10.010;2024-02-15T10:54:41;98387.25;;;11.32;100.00
20444;BME280;10381;53.730;10.010;2024-02-15T10:58:50;98373.66;;;11.48;100.00
20444;BME280;10381;53.730;10.010;2024-02-15T11:03:00;98367.56;;;11.61;100.00
20444;BME280;10381;53.730;10.010;2024-02-15T11:07:04;98366.72;;;11.54;100.00
20444;BME280;10381;53.730;10.010;2024-02-15T11:11:06;98375.53;;;11.55;100.00
20444;BME280;10381;53.730;10.010;2024-02-15T11:15:07;98374.50;;;11.56;100.00
20444;BME280;10381;53.730;10.010;2024-02-15T11:19:08;98371.22;;;11.54;100.00
20444;BME280;10381;53.730;10.010;2024-02-15T11:23:10;98377.13;;;11.56;100.00
20444;BME280;10381;53.730;10.010;2024-02-15T11:27:10;98370.59;;;11.51;100.00
20444;BME280;10381;53.730;10.010;2024-02-15T11:36:21;98375.09;;;11.58;100.00
20444;BME280;10381;53.730;10.010;2024-02-15T11:44:41;98385.28;;;11.54;100.00
20444;BME280;10381;53.730;10.010;2024-02-15T11:48:41;98397.69;;;11.47;100.00
20444;BME280;10381;53.730;10.010;2024-02-15T11:52:42;98388.53;;;11.49;100.00
20444;BME280;10381;53.730;10.010;2024-02-15T11:56:51;98394.88;;;11.48;100.00
20444;BME280;10381;53.730;10.010;2024-02-15T12:00:59;98389.78;;;11.54;100.00
20444;BME280;10381;53.730;10.010;2024-02-15T12:05:18;98399.75;;;11.45;100.00
20444;BME280;10381;53.730;10.010;2024-02-15T12:09:39;98383.47;;;11.61;100.00
20444;BME280;10381;53.730;10.010;2024-02-15T12:14:04;98387.53;;;11.64;100.00
20444;BME280;10381;53.730;10.010;2024-02-15T12:18:23;98389.59;;;11.55;100.00
20444;BME280;10381;53.730;10.010;2024-02-15T12:22:47;98392.84;;;11.57;100.00
20444;BME280;10381;53.730;10.010;2024-02-15T12:26:48;98394.28;;;11.53;100.00
20444;BME280;10381;53.730;10.010;2024-02-15T12:30:55;98387.53;;;11.64;100.00
20444;BME280;10381;53.730;10.010;2024-02-15T12:35:11;98389.78;;;11.54;100.00
20444;BME280;10381;53.730;10.010;2024-02-15T12:39:25;98395.50;;;11.50;100.00
20444;BME280;10381;53.730;10.010;2024-02-15T12:43:25;98401.78;;;11.43;100.00
20444;BME280;10381;53.730;10.010;2024-02-15T12:47:26;98405.22;;;11.37;100.00
20444;BME280;10381;53.730;10.010;2024-02-15T12:51:30;98402.38;;;11.38;100.00
20444;BME280;10381;53.730;10.010;2024-02-15T12:55:36;98413.22;;;11.43;100.00
20444;BME280;10381;53.730;10.010;2024-02-15T12:59:36;98407.28;;;11.41;100.00
20444;BME280;10381;53.730;10.010;2024-02-15T13:03:37;98400.16;;;11.48;100.00
20444;BME280;10381;53.730;10.010;2024-02-15T13:07:37;98395.50;;;11.50;100.00
20444;BME280;10381;53.730;10.010;2024-02-15T13:11:38;98385.72;;;11.58;100.00
20444;BME280;10381;53.730;10.010;2024-02-15T13:15:38;98403.44;;;11.50;100.00
20444;BME280;10381;53.730;10.010;2024-02-15T13:19:45;98400.38;;;11.40;100.00
20444;BME280;10381;53.730;10.010;2024-02-15T13:23:45;98396.28;;;11.38;100.00
20444;BME280;10381;53.730;10.010;2024-02-15T13:27:45;98399.13;;;11.36;100.00
20444;BME280;10381;53.730;10.010;2024-02-15T13:31:46;98402.38;;;11.38;100.00
20444;BME280;10381;53.730;10.010;2024-02-15T13:35:46;98405.41;;;11.35;100.00
20444;BME280;10381;53.730;10.010;2024-02-15T13:39:47;98403.97;;;11.33;100.00
20444;BME280;10381;53.730;10.010;2024-02-15T13:43:48;98406.63;;;11.26;100.00
20444;BME280;10381;53.730;10.010;2024-02-15T13:47:49;98413.34;;;11.22;100.00
20444;BME280;10381;53.730;10.010;2024-02-15T13:51:50;98417.81;;;11.21;100.00
20444;BME280;10381;53.730;10.010;2024-02-15T13:55:52;98418.63;;;11.22;100.00
20444;BME280;10381;53.730;10.010;2024-02-15T13:59:52;98424.97;;;11.21;100.00
20444;BME280;10381;53.730;10.010;2024-02-15T14:03:53;98417.81;;;11.21;100.00
20444;BME280;10381;53.730;10.010;2024-02-15T14:08:12;98421.69;;;11.19;100.00
20444;BME280;10381;53.730;10.010;2024-02-15T14:12:12;98420.84;;;11.18;100.00
20444;BME280;10381;53.730;10.010;2024-02-15T14:16:13;98413.75;;;11.19;100.00
20444;BME280;10381;53.730;10.010;2024-02-15T14:20:14;98415.38;;;11.20;100.00
20444;BME280;10381;53.730;10.010;2024-02-15T14:24:14;98422.69;;;11.18;100.00
20444;BME280;10381;53.730;10.010;2024-02-15T14:28:16;98421.06;;;11.17;100.00
20444;BME280;10381;53.730;10.010;2024-02-15T14:32:16;98415.38;;;11.20;100.00
20444;BME280;10381;53.730;10.010;2024-02-15T14:36:35;98413.34;;;11.22;100.00
20444;BME280;10381;53.730;10.010;2024-02-15T14:40:40;98417.59;;;11.23;100.00
20444;BME280;10381;53.730;10.010;2024-02-15T14:44:41;98417.81;;;11.21;100.00
20444;BME280;10381;53.730;10.010;2024-02-15T14:48:43;98417.19;;;11.19;100.00
20444;BME280;10381;53.730;10.010;2024-02-15T14:52:47;98414.97;;;11.23;100.00
20444;BME280;10381;53.730;10.010;2024-02-15T14:56:48;98418.00;;;11.20;100.00
20444;BME280;10381;53.730;10.010;2024-02-15T15:00:48;98420.03;;;11.18;100.00
20444;BME280;10381;53.730;10.010;2024-02-15T15:04:49;98422.50;;;11.19;100.00
20444;BME280;10381;53.730;10.010;2024-02-15T15:09:09;98430.44;;;11.19;100.00
20444;BME280;10381;53.730;10.010;2024-02-15T15:13:28;98421.47;;;11.20;100.00
20444;BME280;10381;53.730;10.010;2024-02-15T15:17:28;98411.72;;;11.21;100.00
20444;BME280;10381;53.730;10.010;2024-02-15T15:21:28;98417.59;;;11.23;100.00
20444;BME280;10381;53.730;10.010;2024-02-15T15:25:28;98427.63;;;11.21;100.00
20444;BME280;10381;53.730;10.010;2024-02-15T15:29:29;98427.00;;;11.19;100.00
20444;BME280;10381;53.730;10.010;2024-02-15T15:33:30;98423.31;;;11.20;100.00
20444;BME280;10381;53.730;10.010;2024-02-15T15:37:33;98432.47;;;11.17;100.00
20444;BME280;10381;53.730;10.010;2024-02-15T15:41:33;98420.44;;;11.15;100.00
20444;BME280;10381;53.730;10.010;2024-02-15T15:45:37;98424.72;;;11.16;100.00
20444;BME280;10381;53.730;10.010;2024-02-15T15:49:37;98428.38;;;11.15;100.00
20444;BME280;10381;53.730;10.010;2024-02-15T15:53:37;98427.56;;;11.14;100.00
20444;BME280;10381;53.730;10.010;2024-02-15T15:57:40;98434.09;;;11.12;100.00
20444;BME280;10381;53.730;10.010;2024-02-15T16:01:53;98428.16;;;11.09;100.00
20444;BME280;10381;53.730;10.010;2024-02-15T16:05:53;98427.53;;;11.07;100.00
20444;BME280;10381;53.730;10.010;2024-02-15T16:09:54;98434.47;;;11.08;100.00
20444;BME280;10381;53.730;10.010;2024-02-15T16:13:55;98155.66;;;11.06;100.00
20444;BME280;10381;53.730;10.010;2024-02-15T16:17:55;98093.88;;;11.06;100.00
20444;BME280;10381;53.730;10.010;2024-02-15T16:21:56;98147.09;;;11.04;100.00
20444;BME280;10381;53.730;10.010;2024-02-15T16:25:57;98183.97;;;11.06;100.00
20444;BME280;10381;53.730;10.010;2024-02-15T16:29:59;98234.53;;;11.04;100.00
20444;BME280;10381;53.730;10.010;2024-02-15T16:34:00;98277.09;;;11.03;100.00
20444;BME280;10381;53.730;10.010;2024-02-15T16:38:00;98301.13;;;11.01;100.00
20444;BME280;10381;53.730;10.010;2024-02-15T16:42:01;98310.13;;;11.00;100.00
20444;BME280;10381;53.730;10.010;2024-02-15T16:46:03;98311.97;;;11.00;100.00
20444;BME280;10381;53.730;10.010;2024-02-15T16:50:05;98336.22;;;10.97;100.00
20444;BME280;10381;53.730;10.010;2024-02-15T16:54:07;98362.47;;;10.98;100.00
20444;BME280;10381;53.730;10.010;2024-02-15T16:58:08;98346.19;;;10.95;100.00
20444;BME280;10381;53.730;10.010;2024-02-15T17:02:10;98346.19;;;10.95;100.00
20444;BME280;10381;53.730;10.010;2024-02-15T17:06:11;98355.94;;;10.94;100.00
20444;BME280;10381;53.730;10.010;2024-02-15T17:10:11;98377.13;;;10.94;100.00
20444;BME280;10381;53.730;10.010;2024-02-15T17:14:13;98382.25;;;10.96;100.00
20444;BME280;10381;53.730;10.010;2024-02-15T17:18:17;98396.50;;;10.95;100.00
20444;BME280;10381;53.730;10.010;2024-02-15T17:22:17;98401.38;;;10.91;100.00
20444;BME280;10381;53.730;10.010;2024-02-15T17:26:18;98400.16;;;10.94;100.00
20444;BME280;10381;53.730;10.010;2024-02-15T17:30:19;98414.63;;;10.91;100.00
20444;BME280;10381;53.730;10.010;2024-02-15T17:34:20;98406.66;;;10.91;100.00
20444;BME280;10381;53.730;10.010;2024-02-15T17:38:20;98405.84;;;10.91;100.00
20444;BME280;10381;53.730;10.010;2024-02-15T17:42:20;98411.16;;;10.91;100.00
20444;BME280;10381;53.730;10.010;2024-02-15T17:46:23;98410.34;;;10.90;100.00
20444;BME280;10381;53.730;10.010;2024-02-15T17:50:24;98406.03;;;10.89;100.00
20444;BME280;10381;53.730;10.010;2024-02-15T17:54:26;98404.41;;;10.88;100.00
20444;BME280;10381;53.730;10.010;2024-02-15T17:58:26;98408.69;;;10.89;100.00
20444;BME280;10381;53.730;10.010;2024-02-15T18:02:27;98398.72;;;10.91;100.00
20444;BME280;10381;53.730;10.010;2024-02-15T18:06:27;98409.53;;;10.90;100.00
20444;BME280;10381;53.730;10.010;2024-02-15T18:10:28;98410.34;;;10.90;100.00
20444;BME280;10381;53.730;10.010;2024-02-15T18:14:28;98401.78;;;10.88;100.00
20444;BME280;10381;53.730;10.010;2024-02-15T18:18:29;98409.53;;;10.90;100.00
20444;BME280;10381;53.730;10.010;2024-02-15T18:22:29;98409.53;;;10.90;100.00
20444;BME280;10381;53.730;10.010;2024-02-15T18:26:30;98411.97;;;10.91;100.00
20444;BME280;10381;53.730;10.010;2024-02-15T18:30:30;98398.09;;;10.89;100.00
20444;BME280;10381;53.730;10.010;2024-02-15T18:34:35;98420.13;;;10.90;100.00
20444;BME280;10381;53.730;10.010;2024-02-15T18:38:36;98412.38;;;10.88;100.00
20444;BME280;10381;53.730;10.010;2024-02-15T18:42:38;98438.84;;;10.88;100.00
20444;BME280;10381;53.730;10.010;2024-02-15T18:46:39;98422.97;;;10.88;100.00
20444;BME280;10381;53.730;10.010;2024-02-15T18:50:43;98415.19;;;10.86;100.00
20444;BME280;10381;53.730;10.010;2024-02-15T18:54:44;98437.19;;;10.87;100.00
20444;BME280;10381;53.730;10.010;2024-02-15T18:58:44;98435.56;;;10.86;100.00
20444;BME280;10381;53.730;10.010;2024-02-15T19:02:45;98409.91;;;10.86;100.00
20444;BME280;10381;53.730;10.010;2024-02-15T19:06:46;98409.50;;;10.83;100.00
20444;BME280;10381;53.730;10.010;2024-02-15T19:10:46;98384.63;;;10.84;100.00
20444;BME280;10381;53.730;10.010;2024-02-15T19:14:46;98401.31;;;10.84;100.00
20444;BME280;10381;53.730;10.010;2024-02-15T19:18:47;98407.59;;;10.77;100.00
20444;BME280;10381;53.730;10.010;2024-02-15T19:22:47;98417.97;;;10.72;100.00
20444;BME280;10381;53.730;10.010;2024-02-15T19:26:47;98414.75;;;10.76;100.00
20444;BME280;10381;53.730;10.010;2024-02-15T19:30:48;98415.75;;;10.75;100.00
20444;BME280;10381;53.730;10.010;2024-02-15T19:34:48;98415.56;;;10.77;100.00
20444;BME280;10381;53.730;10.010;2024-02-15T19:38:50;98410.25;;;10.77;100.00
20444;BME280;10381;53.730;10.010;2024-02-15T19:42:51;98416.38;;;10.77;100.00
20444;BME280;10381;53.730;10.010;2024-02-15T19:46:51;98411.91;;;10.78;100.00
20444;BME280;10381;53.730;10.010;2024-02-15T19:50:52;98411.06;;;10.77;100.00
20444;BME280;10381;53.730;10.010;2024-02-15T19:54:52;98416.75;;;10.74;100.00
20444;BME280;10381;53.730;10.010;2024-02-15T19:58:52;98408.63;;;10.76;100.00
20444;BME280;10381;53.730;10.010;2024-02-15T20:02:55;98395.56;;;10.74;100.00
20444;BME280;10381;53.730;10.010;2024-02-15T20:06:55;98393.56;;;10.76;100.00
20444;BME280;10381;53.730;10.010;2024-02-15T20:10:55;98402.53;;;10.75;100.00
20444;BME280;10381;53.730;10.010;2024-02-15T20:14:56;98382.97;;;10.76;100.00
20444;BME280;10381;53.730;10.010;2024-02-15T20:18:56;98413.53;;;10.79;100.00
20444;BME280;10381;53.730;10.010;2024-02-15T20:22:58;98371.16;;;10.79;100.00
20444;BME280;10381;53.730;10.010;2024-02-15T20:26:59;98393.38;;;10.78;100.00
20444;BME280;10381;53.730;10.010;2024-02-15T20:31:00;98401.69;;;10.75;100.00
20444;BME280;10381;53.730;10.010;2024-02-15T20:35:00;98405.78;;;10.77;100.00
20444;BME280;10381;53.730;10.010;2024-02-15T20:39:00;98397.00;;;10.77;100.00
20444;BME280;10381;53.730;10.010;2024-02-15T20:43:01;98395.00;;;10.79;100.00
20444;BME280;10381;53.730;10.010;2024-02-15T20:47:02;98407.59;;;10.77;100.00
20444;BME280;10381;53.730;10.010;2024-02-15T20:51:09;98408.63;;;10.76;100.00
20444;BME280;10381;53.730;10.010;2024-02-15T20:55:10;98405.97;;;10.76;100.00
20444;BME280;10381;53.730;10.010;2024-02-15T20:59:11;98427.81;;;10.78;100.00